Airfield :
LOGIN :

Register | Disclaimer

   EN    FR    IT 

 










Legend :    VFR   Marginal VFR   IFR   Intensive IFR   Very Intensive IFR
Visi :
Ceiling :
>= 8 km
>= 3000ft
5 to 8 km
1000 to 3000 ft
1500m to 5 km
500 to 1000 ft
800 to 1500m
200 to 500 ft
< 800m
< 200 ft
Symbols :   Thunderstorms  Fog  Heavy snow  Heavy precipitations  Wind > 20 kt
SIGMETs :     Misc.  Thunderstorms  Icing  Turbulence  Mountain Waves  Volcanic Ashes







- Airport Elevation : 7 ft
- IATA code : XHE
- Download approach charts


LFTH - Hyeres

CURRENT METAR :
  • 301400Z AUTO 21006KT 160V240 CAVOK 19/11 Q1025 NOSIG

EXPIRED METARs :
  • 301330Z AUTO 20006KT 160V250 CAVOK 20/12 Q1025 NOSIG
  • 301300Z AUTO 15006KT 120V190 9999 NSC 20/08 Q1025 NOSIG
  • 301230Z AUTO 12007KT 9999 NSC 19/08 Q1025 BECMG 22010KT
  • 301200Z AUTO 13006KT 090V160 9999 NSC 19/10 Q1025 BECMG 22010KT
  • 301130Z AUTO 14004KT 100V170 9999 NSC 19/11 Q1025 NOSIG

TAF TAF LFTH
Valid from the 30 at 09:00 until the 31 at 09:00 UTC


300800Z 3009/3109 VRB03KT CAVOK
BECMG 3010/3012 22010KT
TEMPO 3018/3103 VRB03KT 5000 BR
No reported NOTAMs for that airfield.



MET'MAP, your aeronautical weather chart ! - Copyright ORBIFLY December 2007 - Disclaimer

ORBIFLY MET'MAP TEAM :

Programming & Development : Alexandra Zaïnal
Concept & Development : Baudouin d'Aumeries
Co-Development & Prog : Marc-Olivier Méhu
Technical & hardware support : Manuel Goepfert

Contact : metmap@orbifly.com




SOURCES & CREDITS :

   NOAA